sensor_id;sensor_type;location;lat;lon;timestamp;P1;durP1;ratioP1;P2;durP2;ratioP2
26864;SDS011;40618;51.166;10.322;2023-07-13T00:01:51;2.08;;;0.70;;
26864;SDS011;40618;51.166;10.322;2023-07-13T00:04:17;0.88;;;0.60;;
26864;SDS011;40618;51.166;10.322;2023-07-13T00:06:46;0.70;;;0.60;;
26864;SDS011;40618;51.166;10.322;2023-07-13T00:09:12;2.22;;;0.63;;
26864;SDS011;40618;51.166;10.322;2023-07-13T00:11:42;1.52;;;0.60;;
26864;SDS011;40618;51.166;10.322;2023-07-13T00:14:09;1.02;;;0.70;;
26864;SDS011;40618;51.166;10.322;2023-07-13T00:16:36;1.00;;;0.60;;
26864;SDS011;40618;51.166;10.322;2023-07-13T00:19:08;1.42;;;0.70;;
26864;SDS011;40618;51.166;10.322;2023-07-13T00:21:36;2.40;;;0.63;;
26864;SDS011;40618;51.166;10.322;2023-07-13T00:24:02;2.70;;;0.93;;
26864;SDS011;40618;51.166;10.322;2023-07-13T00:26:29;4.22;;;1.00;;
26864;SDS011;40618;51.166;10.322;2023-07-13T00:28:54;1.65;;;0.60;;
26864;SDS011;40618;51.166;10.322;2023-07-13T00:31:20;1.92;;;0.90;;
26864;SDS011;40618;51.166;10.322;2023-07-13T00:33:46;1.65;;;0.60;;
26864;SDS011;40618;51.166;10.322;2023-07-13T00:36:11;2.25;;;0.70;;
26864;SDS011;40618;51.166;10.322;2023-07-13T00:38:38;1.05;;;0.60;;
26864;SDS011;40618;51.166;10.322;2023-07-13T00:41:03;1.95;;;0.60;;
26864;SDS011;40618;51.166;10.322;2023-07-13T00:43:29;1.88;;;0.70;;
26864;SDS011;40618;51.166;10.322;2023-07-13T00:48:22;0.82;;;0.68;;
26864;SDS011;40618;51.166;10.322;2023-07-13T00:50:54;0.90;;;0.57;;
26864;SDS011;40618;51.166;10.322;2023-07-13T00:53:24;1.92;;;0.52;;
26864;SDS011;40618;51.166;10.322;2023-07-13T00:55:52;1.35;;;0.70;;
26864;SDS011;40618;51.166;10.322;2023-07-13T00:58:21;4.20;;;0.63;;
26864;SDS011;40618;51.166;10.322;2023-07-13T01:00:49;10.95;;;0.82;;
26864;SDS011;40618;51.166;10.322;2023-07-13T01:03:16;6.60;;;0.77;;
26864;SDS011;40618;51.166;10.322;2023-07-13T01:05:43;1.25;;;0.73;;
26864;SDS011;40618;51.166;10.322;2023-07-13T01:08:13;1.25;;;0.60;;
26864;SDS011;40618;51.166;10.322;2023-07-13T01:10:39;1.95;;;0.60;;
26864;SDS011;40618;51.166;10.322;2023-07-13T01:13:05;3.50;;;0.80;;
26864;SDS011;40618;51.166;10.322;2023-07-13T01:15:43;3.95;;;0.63;;
26864;SDS011;40618;51.166;10.322;2023-07-13T01:18:14;2.75;;;0.80;;
26864;SDS011;40618;51.166;10.322;2023-07-13T01:20:54;2.10;;;0.90;;
26864;SDS011;40618;51.166;10.322;2023-07-13T01:23:23;1.33;;;0.60;;
26864;SDS011;40618;51.166;10.322;2023-07-13T01:25:50;1.30;;;0.70;;
26864;SDS011;40618;51.166;10.322;2023-07-13T01:28:17;1.45;;;0.75;;
26864;SDS011;40618;51.166;10.322;2023-07-13T01:30:44;1.90;;;0.80;;
26864;SDS011;40618;51.166;10.322;2023-07-13T01:33:12;3.08;;;0.70;;
26864;SDS011;40618;51.166;10.322;2023-07-13T01:35:40;0.80;;;0.57;;
26864;SDS011;40618;51.166;10.322;2023-07-13T01:38:06;1.92;;;0.60;;
26864;SDS011;40618;51.166;10.322;2023-07-13T01:40:33;1.85;;;0.70;;
26864;SDS011;40618;51.166;10.322;2023-07-13T01:43:00;1.88;;;0.55;;
26864;SDS011;40618;51.166;10.322;2023-07-13T01:45:26;1.08;;;0.60;;
26864;SDS011;40618;51.166;10.322;2023-07-13T01:47:51;0.88;;;0.60;;
26864;SDS011;40618;51.166;10.322;2023-07-13T01:50:17;0.95;;;0.65;;
26864;SDS011;40618;51.166;10.322;2023-07-13T01:52:43;2.95;;;0.93;;
26864;SDS011;40618;51.166;10.322;2023-07-13T01:55:08;1.20;;;0.55;;
26864;SDS011;40618;51.166;10.322;2023-07-13T01:57:34;1.40;;;0.68;;
26864;SDS011;40618;51.166;10.322;2023-07-13T02:00:02;2.22;;;0.63;;
26864;SDS011;40618;51.166;10.322;2023-07-13T02:02:30;0.57;;;0.40;;
26864;SDS011;40618;51.166;10.322;2023-07-13T02:04:56;3.50;;;0.68;;
26864;SDS011;40618;51.166;10.322;2023-07-13T02:07:22;2.70;;;0.80;;
26864;SDS011;40618;51.166;10.322;2023-07-13T02:09:47;1.38;;;0.90;;
26864;SDS011;40618;51.166;10.322;2023-07-13T02:12:13;2.00;;;0.75;;
26864;SDS011;40618;51.166;10.322;2023-07-13T02:14:39;2.53;;;0.63;;
26864;SDS011;40618;51.166;10.322;2023-07-13T02:17:05;1.17;;;0.70;;
26864;SDS011;40618;51.166;10.322;2023-07-13T02:19:31;2.10;;;0.80;;
26864;SDS011;40618;51.166;10.322;2023-07-13T02:21:57;1.38;;;0.73;;
26864;SDS011;40618;51.166;10.322;2023-07-13T02:24:23;1.35;;;0.70;;
26864;SDS011;40618;51.166;10.322;2023-07-13T02:26:49;1.00;;;0.60;;
26864;SDS011;40618;51.166;10.322;2023-07-13T02:29:14;1.88;;;0.70;;
26864;SDS011;40618;51.166;10.322;2023-07-13T02:31:40;1.48;;;0.95;;
26864;SDS011;40618;51.166;10.322;2023-07-13T02:34:06;1.33;;;0.50;;
26864;SDS011;40618;51.166;10.322;2023-07-13T02:36:31;2.13;;;0.70;;
26864;SDS011;40618;51.166;10.322;2023-07-13T02:39:00;1.38;;;0.73;;
26864;SDS011;40618;51.166;10.322;2023-07-13T02:41:27;5.25;;;0.70;;
26864;SDS011;40618;51.166;10.322;2023-07-13T02:43:54;4.53;;;0.90;;
26864;SDS011;40618;51.166;10.322;2023-07-13T02:46:27;2.63;;;0.80;;
26864;SDS011;40618;51.166;10.322;2023-07-13T02:48:57;1.88;;;0.80;;
26864;SDS011;40618;51.166;10.322;2023-07-13T02:51:22;2.50;;;1.13;;
26864;SDS011;40618;51.166;10.322;2023-07-13T02:53:48;1.45;;;0.77;;
26864;SDS011;40618;51.166;10.322;2023-07-13T02:56:14;3.60;;;1.13;;
26864;SDS011;40618;51.166;10.322;2023-07-13T02:58:39;1.00;;;0.68;;
26864;SDS011;40618;51.166;10.322;2023-07-13T03:01:09;2.75;;;1.05;;
26864;SDS011;40618;51.166;10.322;2023-07-13T03:03:37;4.50;;;0.90;;
26864;SDS011;40618;51.166;10.322;2023-07-13T03:06:03;0.85;;;0.55;;
26864;SDS011;40618;51.166;10.322;2023-07-13T03:08:31;2.90;;;0.80;;
26864;SDS011;40618;51.166;10.322;2023-07-13T03:11:00;3.83;;;0.85;;
26864;SDS011;40618;51.166;10.322;2023-07-13T03:13:45;1.77;;;0.77;;
26864;SDS011;40618;51.166;10.322;2023-07-13T03:16:11;1.27;;;0.80;;
26864;SDS011;40618;51.166;10.322;2023-07-13T03:18:37;1.45;;;0.75;;
26864;SDS011;40618;51.166;10.322;2023-07-13T03:21:04;2.38;;;0.88;;
26864;SDS011;40618;51.166;10.322;2023-07-13T03:23:31;1.75;;;0.73;;
26864;SDS011;40618;51.166;10.322;2023-07-13T03:26:16;2.30;;;0.70;;
26864;SDS011;40618;51.166;10.322;2023-07-13T03:28:45;2.45;;;0.70;;
26864;SDS011;40618;51.166;10.322;2023-07-13T03:31:12;3.53;;;1.00;;
26864;SDS011;40618;51.166;10.322;2023-07-13T03:33:43;4.03;;;1.13;;
26864;SDS011;40618;51.166;10.322;2023-07-13T03:36:12;1.00;;;0.63;;
26864;SDS011;40618;51.166;10.322;2023-07-13T03:38:48;1.92;;;0.68;;
26864;SDS011;40618;51.166;10.322;2023-07-13T03:41:19;3.20;;;1.13;;
26864;SDS011;40618;51.166;10.322;2023-07-13T03:43:45;1.45;;;0.65;;
26864;SDS011;40618;51.166;10.322;2023-07-13T03:46:13;3.03;;;1.20;;
26864;SDS011;40618;51.166;10.322;2023-07-13T03:48:40;1.05;;;0.65;;
26864;SDS011;40618;51.166;10.322;2023-07-13T03:51:08;2.15;;;0.80;;
26864;SDS011;40618;51.166;10.322;2023-07-13T03:53:37;2.30;;;0.68;;
26864;SDS011;40618;51.166;10.322;2023-07-13T03:56:04;1.75;;;0.90;;
26864;SDS011;40618;51.166;10.322;2023-07-13T03:58:35;2.85;;;0.85;;
26864;SDS011;40618;51.166;10.322;2023-07-13T04:01:04;2.58;;;1.00;;
26864;SDS011;40618;51.166;10.322;2023-07-13T04:03:31;4.10;;;0.80;;
26864;SDS011;40618;51.166;10.322;2023-07-13T04:06:02;2.42;;;0.95;;
26864;SDS011;40618;51.166;10.322;2023-07-13T04:08:31;0.93;;;0.70;;
26864;SDS011;40618;51.166;10.322;2023-07-13T04:11:00;1.15;;;0.80;;
26864;SDS011;40618;51.166;10.322;2023-07-13T04:13:28;3.90;;;1.10;;
26864;SDS011;40618;51.166;10.322;2023-07-13T04:15:54;1.25;;;0.80;;
26864;SDS011;40618;51.166;10.322;2023-07-13T04:18:20;2.35;;;1.05;;
26864;SDS011;40618;51.166;10.322;2023-07-13T04:20:46;4.43;;;1.00;;
26864;SDS011;40618;51.166;10.322;2023-07-13T04:23:14;1.95;;;0.80;;
26864;SDS011;40618;51.166;10.322;2023-07-13T04:25:44;2.13;;;1.05;;
26864;SDS011;40618;51.166;10.322;2023-07-13T04:28:18;6.22;;;1.40;;
26864;SDS011;40618;51.166;10.322;2023-07-13T04:30:46;2.40;;;1.15;;
26864;SDS011;40618;51.166;10.322;2023-07-13T04:33:12;3.13;;;0.73;;
26864;SDS011;40618;51.166;10.322;2023-07-13T04:35:37;1.92;;;1.02;;
26864;SDS011;40618;51.166;10.322;2023-07-13T04:38:04;1.67;;;1.00;;
26864;SDS011;40618;51.166;10.322;2023-07-13T04:40:29;2.53;;;1.45;;
26864;SDS011;40618;51.166;10.322;2023-07-13T04:42:55;2.65;;;1.33;;
26864;SDS011;40618;51.166;10.322;2023-07-13T04:45:21;1.73;;;1.25;;
26864;SDS011;40618;51.166;10.322;2023-07-13T04:47:49;1.73;;;1.10;;
26864;SDS011;40618;51.166;10.322;2023-07-13T04:50:15;3.22;;;1.30;;
26864;SDS011;40618;51.166;10.322;2023-07-13T04:52:45;1.87;;;1.00;;
26864;SDS011;40618;51.166;10.322;2023-07-13T04:55:10;2.10;;;1.17;;
26864;SDS011;40618;51.166;10.322;2023-07-13T04:57:36;3.50;;;1.33;;
26864;SDS011;40618;51.166;10.322;2023-07-13T05:00:02;1.20;;;1.02;;
26864;SDS011;40618;51.166;10.322;2023-07-13T05:02:32;2.03;;;0.77;;
26864;SDS011;40618;51.166;10.322;2023-07-13T05:05:00;3.60;;;1.00;;
26864;SDS011;40618;51.166;10.322;2023-07-13T05:07:28;2.13;;;0.85;;
26864;SDS011;40618;51.166;10.322;2023-07-13T05:09:54;2.35;;;0.98;;
26864;SDS011;40618;51.166;10.322;2023-07-13T05:12:19;1.90;;;0.93;;
26864;SDS011;40618;51.166;10.322;2023-07-13T05:14:45;2.25;;;1.10;;
26864;SDS011;40618;51.166;10.322;2023-07-13T05:17:11;2.72;;;1.38;;
26864;SDS011;40618;51.166;10.322;2023-07-13T05:19:36;3.33;;;0.98;;
26864;SDS011;40618;51.166;10.322;2023-07-13T05:22:02;2.25;;;1.27;;
26864;SDS011;40618;51.166;10.322;2023-07-13T05:24:29;1.40;;;0.90;;
26864;SDS011;40618;51.166;10.322;2023-07-13T05:26:54;1.25;;;0.80;;
26864;SDS011;40618;51.166;10.322;2023-07-13T05:29:20;2.75;;;1.00;;
26864;SDS011;40618;51.166;10.322;2023-07-13T05:31:47;2.38;;;0.85;;
26864;SDS011;40618;51.166;10.322;2023-07-13T05:34:14;1.80;;;1.00;;
26864;SDS011;40618;51.166;10.322;2023-07-13T05:36:40;4.90;;;1.10;;
26864;SDS011;40618;51.166;10.322;2023-07-13T05:39:06;2.13;;;1.08;;
26864;SDS011;40618;51.166;10.322;2023-07-13T05:41:32;6.20;;;1.40;;
26864;SDS011;40618;51.166;10.322;2023-07-13T05:43:58;1.85;;;0.90;;
26864;SDS011;40618;51.166;10.322;2023-07-13T05:46:24;4.35;;;1.10;;
26864;SDS011;40618;51.166;10.322;2023-07-13T05:48:50;7.15;;;1.27;;
26864;SDS011;40618;51.166;10.322;2023-07-13T05:51:16;3.88;;;1.20;;
26864;SDS011;40618;51.166;10.322;2023-07-13T05:53:41;1.60;;;0.95;;
26864;SDS011;40618;51.166;10.322;2023-07-13T05:56:07;4.05;;;1.20;;
26864;SDS011;40618;51.166;10.322;2023-07-13T05:58:32;4.03;;;1.48;;
26864;SDS011;40618;51.166;10.322;2023-07-13T06:01:08;2.67;;;1.00;;
26864;SDS011;40618;51.166;10.322;2023-07-13T06:03:38;3.30;;;1.50;;
26864;SDS011;40618;51.166;10.322;2023-07-13T06:06:04;3.33;;;1.05;;
26864;SDS011;40618;51.166;10.322;2023-07-13T06:08:32;3.90;;;1.35;;
26864;SDS011;40618;51.166;10.322;2023-07-13T06:13:40;4.88;;;1.88;;
26864;SDS011;40618;51.166;10.322;2023-07-13T06:16:06;2.88;;;1.45;;
26864;SDS011;40618;51.166;10.322;2023-07-13T06:18:34;4.65;;;1.90;;
26864;SDS011;40618;51.166;10.322;2023-07-13T06:21:08;3.78;;;1.42;;
26864;SDS011;40618;51.166;10.322;2023-07-13T06:23:36;6.15;;;1.20;;
26864;SDS011;40618;51.166;10.322;2023-07-13T06:26:03;9.75;;;1.85;;
26864;SDS011;40618;51.166;10.322;2023-07-13T06:28:30;2.80;;;1.20;;
26864;SDS011;40618;51.166;10.322;2023-07-13T06:30:57;2.20;;;1.10;;
26864;SDS011;40618;51.166;10.322;2023-07-13T06:33:24;4.00;;;1.23;;
26864;SDS011;40618;51.166;10.322;2023-07-13T06:35:51;2.83;;;1.27;;
26864;SDS011;40618;51.166;10.322;2023-07-13T06:38:16;4.32;;;1.13;;
26864;SDS011;40618;51.166;10.322;2023-07-13T06:40:42;3.30;;;1.00;;
26864;SDS011;40618;51.166;10.322;2023-07-13T06:43:08;3.17;;;1.50;;
26864;SDS011;40618;51.166;10.322;2023-07-13T06:45:40;3.75;;;1.60;;
26864;SDS011;40618;51.166;10.322;2023-07-13T06:48:14;2.85;;;1.30;;
26864;SDS011;40618;51.166;10.322;2023-07-13T06:50:41;4.82;;;1.40;;
26864;SDS011;40618;51.166;10.322;2023-07-13T06:53:08;3.58;;;0.85;;
26864;SDS011;40618;51.166;10.322;2023-07-13T06:55:35;3.17;;;1.10;;
26864;SDS011;40618;51.166;10.322;2023-07-13T06:58:01;3.65;;;1.10;;
26864;SDS011;40618;51.166;10.322;2023-07-13T07:00:26;4.70;;;1.05;;
26864;SDS011;40618;51.166;10.322;2023-07-13T07:02:52;2.38;;;0.90;;
26864;SDS011;40618;51.166;10.322;2023-07-13T07:05:17;3.65;;;0.82;;
26864;SDS011;40618;51.166;10.322;2023-07-13T07:07:46;0.73;;;0.60;;
26864;SDS011;40618;51.166;10.322;2023-07-13T07:10:15;2.38;;;0.93;;
26864;SDS011;40618;51.166;10.322;2023-07-13T07:12:40;1.17;;;1.00;;
26864;SDS011;40618;51.166;10.322;2023-07-13T07:15:06;3.85;;;1.00;;
26864;SDS011;40618;51.166;10.322;2023-07-13T07:17:32;3.13;;;1.00;;
26864;SDS011;40618;51.166;10.322;2023-07-13T07:19:58;2.67;;;0.90;;
26864;SDS011;40618;51.166;10.322;2023-07-13T07:22:23;4.65;;;1.50;;
26864;SDS011;40618;51.166;10.322;2023-07-13T07:24:52;1.65;;;0.93;;
26864;SDS011;40618;51.166;10.322;2023-07-13T07:27:18;2.40;;;0.90;;
26864;SDS011;40618;51.166;10.322;2023-07-13T07:29:45;3.53;;;0.70;;
26864;SDS011;40618;51.166;10.322;2023-07-13T07:32:10;3.40;;;0.90;;
26864;SDS011;40618;51.166;10.322;2023-07-13T07:34:36;2.08;;;0.90;;
26864;SDS011;40618;51.166;10.322;2023-07-13T07:37:02;5.32;;;0.95;;
26864;SDS011;40618;51.166;10.322;2023-07-13T07:39:28;2.70;;;0.90;;
26864;SDS011;40618;51.166;10.322;2023-07-13T07:41:54;5.53;;;0.95;;
26864;SDS011;40618;51.166;10.322;2023-07-13T07:44:20;1.48;;;0.60;;
26864;SDS011;40618;51.166;10.322;2023-07-13T07:46:46;1.60;;;0.60;;
26864;SDS011;40618;51.166;10.322;2023-07-13T07:49:11;4.93;;;1.10;;
26864;SDS011;40618;51.166;10.322;2023-07-13T07:51:37;2.55;;;0.90;;
26864;SDS011;40618;51.166;10.322;2023-07-13T07:54:03;2.00;;;0.73;;
26864;SDS011;40618;51.166;10.322;2023-07-13T07:56:30;2.72;;;0.90;;
26864;SDS011;40618;51.166;10.322;2023-07-13T07:58:56;3.67;;;0.88;;
26864;SDS011;40618;51.166;10.322;2023-07-13T08:01:22;2.97;;;0.68;;
26864;SDS011;40618;51.166;10.322;2023-07-13T08:03:48;3.60;;;0.90;;
26864;SDS011;40618;51.166;10.322;2023-07-13T08:06:14;2.70;;;1.10;;
26864;SDS011;40618;51.166;10.322;2023-07-13T08:08:40;1.90;;;1.10;;
26864;SDS011;40618;51.166;10.322;2023-07-13T08:11:07;1.85;;;0.75;;
26864;SDS011;40618;51.166;10.322;2023-07-13T08:13:34;2.75;;;0.80;;
26864;SDS011;40618;51.166;10.322;2023-07-13T08:16:00;2.50;;;1.20;;
26864;SDS011;40618;51.166;10.322;2023-07-13T08:18:26;1.77;;;0.95;;
26864;SDS011;40618;51.166;10.322;2023-07-13T08:20:55;5.50;;;0.90;;
26864;SDS011;40618;51.166;10.322;2023-07-13T08:23:24;1.92;;;0.70;;
26864;SDS011;40618;51.166;10.322;2023-07-13T08:25:51;1.17;;;0.57;;
26864;SDS011;40618;51.166;10.322;2023-07-13T08:28:19;3.20;;;0.88;;
26864;SDS011;40618;51.166;10.322;2023-07-13T08:30:48;1.48;;;0.55;;
26864;SDS011;40618;51.166;10.322;2023-07-13T08:33:17;1.85;;;0.80;;
26864;SDS011;40618;51.166;10.322;2023-07-13T08:35:50;1.75;;;0.75;;
26864;SDS011;40618;51.166;10.322;2023-07-13T08:38:16;2.40;;;0.80;;
26864;SDS011;40618;51.166;10.322;2023-07-13T08:40:43;3.72;;;1.00;;
26864;SDS011;40618;51.166;10.322;2023-07-13T08:43:16;4.43;;;1.00;;
26864;SDS011;40618;51.166;10.322;2023-07-13T08:45:51;1.35;;;0.65;;
26864;SDS011;40618;51.166;10.322;2023-07-13T08:48:28;2.03;;;0.70;;
26864;SDS011;40618;51.166;10.322;2023-07-13T08:51:35;2.10;;;0.73;;
26864;SDS011;40618;51.166;10.322;2023-07-13T08:54:50;2.58;;;0.60;;
26864;SDS011;40618;51.166;10.322;2023-07-13T08:57:09;1.83;;;0.80;;
26864;SDS011;40618;51.166;10.322;2023-07-13T08:59:40;0.63;;;0.40;;
26864;SDS011;40618;51.166;10.322;2023-07-13T09:05:12;1.60;;;0.60;;
26864;SDS011;40618;51.166;10.322;2023-07-13T09:07:58;0.98;;;0.55;;
26864;SDS011;40618;51.166;10.322;2023-07-13T09:10:45;0.70;;;0.52;;
26864;SDS011;40618;51.166;10.322;2023-07-13T09:15:51;3.25;;;0.70;;
26864;SDS011;40618;51.166;10.322;2023-07-13T09:18:32;1.60;;;0.55;;
26864;SDS011;40618;51.166;10.322;2023-07-13T09:21:39;1.05;;;0.57;;
26864;SDS011;40618;51.166;10.322;2023-07-13T09:27:20;2.47;;;1.05;;
26864;SDS011;40618;51.166;10.322;2023-07-13T09:29:57;4.55;;;1.10;;
26864;SDS011;40618;51.166;10.322;2023-07-13T09:32:52;2.00;;;0.70;;
26864;SDS011;40618;51.166;10.322;2023-07-13T09:35:20;1.58;;;0.70;;
26864;SDS011;40618;51.166;10.322;2023-07-13T09:37:57;1.85;;;0.77;;
26864;SDS011;40618;51.166;10.322;2023-07-13T09:43:35;1.55;;;0.63;;
26864;SDS011;40618;51.166;10.322;2023-07-13T09:46:01;2.70;;;0.80;;
26864;SDS011;40618;51.166;10.322;2023-07-13T09:48:34;2.00;;;0.70;;
26864;SDS011;40618;51.166;10.322;2023-07-13T09:51:07;0.63;;;0.55;;
26864;SDS011;40618;51.166;10.322;2023-07-13T09:53:40;2.53;;;0.70;;
26864;SDS011;40618;51.166;10.322;2023-07-13T09:56:23;1.88;;;0.60;;
26864;SDS011;40618;51.166;10.322;2023-07-13T09:58:54;1.60;;;0.77;;
26864;SDS011;40618;51.166;10.322;2023-07-13T10:01:34;2.15;;;0.70;;
26864;SDS011;40618;51.166;10.322;2023-07-13T10:04:05;3.15;;;0.70;;
26864;SDS011;40618;51.166;10.322;2023-07-13T10:06:38;1.45;;;0.75;;
26864;SDS011;40618;51.166;10.322;2023-07-13T10:09:08;0.82;;;0.60;;
26864;SDS011;40618;51.166;10.322;2023-07-13T10:11:35;1.10;;;0.52;;
26864;SDS011;40618;51.166;10.322;2023-07-13T10:16:43;1.40;;;0.85;;
26864;SDS011;40618;51.166;10.322;2023-07-13T10:19:16;2.60;;;0.70;;
26864;SDS011;40618;51.166;10.322;2023-07-13T10:21:52;1.65;;;0.82;;
26864;SDS011;40618;51.166;10.322;2023-07-13T10:24:26;1.75;;;0.63;;
26864;SDS011;40618;51.166;10.322;2023-07-13T10:27:00;1.88;;;0.85;;
26864;SDS011;40618;51.166;10.322;2023-07-13T10:29:45;1.75;;;0.90;;
26864;SDS011;40618;51.166;10.322;2023-07-13T10:32:17;2.80;;;0.70;;
26864;SDS011;40618;51.166;10.322;2023-07-13T10:34:48;3.55;;;0.77;;
26864;SDS011;40618;51.166;10.322;2023-07-13T10:37:19;3.45;;;0.82;;
26864;SDS011;40618;51.166;10.322;2023-07-13T10:39:50;3.42;;;0.70;;
26864;SDS011;40618;51.166;10.322;2023-07-13T10:42:29;2.45;;;1.15;;
26864;SDS011;40618;51.166;10.322;2023-07-13T10:45:02;1.25;;;0.80;;
26864;SDS011;40618;51.166;10.322;2023-07-13T10:47:38;0.47;;;0.47;;
26864;SDS011;40618;51.166;10.322;2023-07-13T10:50:05;2.05;;;0.93;;
26864;SDS011;40618;51.166;10.322;2023-07-13T10:52:45;2.60;;;1.02;;
26864;SDS011;40618;51.166;10.322;2023-07-13T10:58:01;2.17;;;0.98;;
26864;SDS011;40618;51.166;10.322;2023-07-13T11:03:26;2.50;;;0.85;;
26864;SDS011;40618;51.166;10.322;2023-07-13T11:09:17;1.02;;;0.60;;
26864;SDS011;40618;51.166;10.322;2023-07-13T11:12:49;1.15;;;0.60;;
26864;SDS011;40618;51.166;10.322;2023-07-13T11:15:12;2.00;;;0.70;;
26864;SDS011;40618;51.166;10.322;2023-07-13T11:17:46;1.70;;;0.65;;
26864;SDS011;40618;51.166;10.322;2023-07-13T11:20:32;3.17;;;0.60;;
26864;SDS011;40618;51.166;10.322;2023-07-13T11:23:09;1.70;;;0.73;;
26864;SDS011;40618;51.166;10.322;2023-07-13T11:25:52;2.53;;;0.77;;
26864;SDS011;40618;51.166;10.322;2023-07-13T11:28:21;0.90;;;0.70;;
26864;SDS011;40618;51.166;10.322;2023-07-13T11:33:22;1.63;;;0.80;;
26864;SDS011;40618;51.166;10.322;2023-07-13T11:36:15;1.00;;;0.60;;
26864;SDS011;40618;51.166;10.322;2023-07-13T11:38:49;1.65;;;0.90;;
26864;SDS011;40618;51.166;10.322;2023-07-13T11:41:32;1.90;;;0.77;;
26864;SDS011;40618;51.166;10.322;2023-07-13T11:44:22;2.08;;;0.60;;
26864;SDS011;40618;51.166;10.322;2023-07-13T11:46:51;0.85;;;0.60;;
26864;SDS011;40618;51.166;10.322;2023-07-13T11:49:19;0.90;;;0.60;;
26864;SDS011;40618;51.166;10.322;2023-07-13T11:51:48;4.83;;;0.90;;
26864;SDS011;40618;51.166;10.322;2023-07-13T12:00:00;1.35;;;0.63;;
26864;SDS011;40618;51.166;10.322;2023-07-13T12:02:37;3.38;;;1.00;;
26864;SDS011;40618;51.166;10.322;2023-07-13T12:05:10;1.02;;;0.85;;
26864;SDS011;40618;51.166;10.322;2023-07-13T12:07:40;3.50;;;0.65;;
26864;SDS011;40618;51.166;10.322;2023-07-13T12:13:00;2.45;;;0.70;;
26864;SDS011;40618;51.166;10.322;2023-07-13T12:15:45;1.52;;;0.70;;
26864;SDS011;40618;51.166;10.322;2023-07-13T12:18:16;3.03;;;0.50;;
26864;SDS011;40618;51.166;10.322;2023-07-13T12:20:47;3.17;;;0.43;;
26864;SDS011;40618;51.166;10.322;2023-07-13T12:25:58;2.38;;;0.70;;
26864;SDS011;40618;51.166;10.322;2023-07-13T12:31:30;1.27;;;0.80;;
26864;SDS011;40618;51.166;10.322;2023-07-13T12:37:12;0.45;;;0.45;;
26864;SDS011;40618;51.166;10.322;2023-07-13T12:39:38;0.90;;;0.60;;
26864;SDS011;40618;51.166;10.322;2023-07-13T12:44:54;2.75;;;0.60;;
26864;SDS011;40618;51.166;10.322;2023-07-13T12:47:25;2.13;;;0.68;;
26864;SDS011;40618;51.166;10.322;2023-07-13T12:49:55;0.75;;;0.55;;
26864;SDS011;40618;51.166;10.322;2023-07-13T12:52:31;0.80;;;0.60;;
26864;SDS011;40618;51.166;10.322;2023-07-13T12:57:49;0.98;;;0.57;;
26864;SDS011;40618;51.166;10.322;2023-07-13T13:00:23;1.50;;;0.60;;
26864;SDS011;40618;51.166;10.322;2023-07-13T13:03:02;2.08;;;0.70;;
26864;SDS011;40618;51.166;10.322;2023-07-13T13:05:43;1.20;;;0.40;;
26864;SDS011;40618;51.166;10.322;2023-07-13T13:08:13;1.40;;;0.57;;
26864;SDS011;40618;51.166;10.322;2023-07-13T13:10:39;1.27;;;0.67;;
26864;SDS011;40618;51.166;10.322;2023-07-13T13:13:05;0.88;;;0.40;;
26864;SDS011;40618;51.166;10.322;2023-07-13T13:15:30;0.50;;;0.50;;
26864;SDS011;40618;51.166;10.322;2023-07-13T13:17:57;0.40;;;0.32;;
26864;SDS011;40618;51.166;10.322;2023-07-13T13:20:23;0.95;;;0.47;;
26864;SDS011;40618;51.166;10.322;2023-07-13T13:22:50;1.70;;;0.50;;
26864;SDS011;40618;51.166;10.322;2023-07-13T13:25:17;0.52;;;0.50;;
26864;SDS011;40618;51.166;10.322;2023-07-13T13:27:44;1.65;;;0.45;;
26864;SDS011;40618;51.166;10.322;2023-07-13T13:30:11;1.13;;;0.50;;
26864;SDS011;40618;51.166;10.322;2023-07-13T13:32:40;1.40;;;0.60;;
26864;SDS011;40618;51.166;10.322;2023-07-13T13:35:12;0.57;;;0.50;;
26864;SDS011;40618;51.166;10.322;2023-07-13T13:37:40;0.73;;;0.47;;
26864;SDS011;40618;51.166;10.322;2023-07-13T13:40:17;0.50;;;0.50;;
26864;SDS011;40618;51.166;10.322;2023-07-13T13:42:46;2.63;;;0.63;;
26864;SDS011;40618;51.166;10.322;2023-07-13T13:45:12;0.45;;;0.40;;
26864;SDS011;40618;51.166;10.322;2023-07-13T13:47:38;0.82;;;0.45;;
26864;SDS011;40618;51.166;10.322;2023-07-13T13:50:16;1.42;;;0.50;;
26864;SDS011;40618;51.166;10.322;2023-07-13T13:52:47;0.60;;;0.40;;
26864;SDS011;40618;51.166;10.322;2023-07-13T13:55:14;1.33;;;0.65;;
26864;SDS011;40618;51.166;10.322;2023-07-13T13:57:43;1.67;;;0.68;;
26864;SDS011;40618;51.166;10.322;2023-07-13T14:00:11;1.30;;;0.82;;
26864;SDS011;40618;51.166;10.322;2023-07-13T14:02:39;1.27;;;0.57;;
26864;SDS011;40618;51.166;10.322;2023-07-13T14:05:12;0.57;;;0.40;;
26864;SDS011;40618;51.166;10.322;2023-07-13T14:07:41;0.77;;;0.60;;
26864;SDS011;40618;51.166;10.322;2023-07-13T14:10:16;2.17;;;0.70;;
26864;SDS011;40618;51.166;10.322;2023-07-13T14:12:44;0.63;;;0.40;;
26864;SDS011;40618;51.166;10.322;2023-07-13T14:15:20;1.85;;;0.55;;
26864;SDS011;40618;51.166;10.322;2023-07-13T14:17:52;0.57;;;0.43;;
26864;SDS011;40618;51.166;10.322;2023-07-13T14:20:20;0.40;;;0.40;;
26864;SDS011;40618;51.166;10.322;2023-07-13T14:22:48;2.67;;;0.80;;
26864;SDS011;40618;51.166;10.322;2023-07-13T14:25:16;3.40;;;0.50;;
26864;SDS011;40618;51.166;10.322;2023-07-13T14:27:44;0.60;;;0.60;;
26864;SDS011;40618;51.166;10.322;2023-07-13T14:32:43;1.27;;;0.63;;
26864;SDS011;40618;51.166;10.322;2023-07-13T14:35:11;5.85;;;0.60;;
26864;SDS011;40618;51.166;10.322;2023-07-13T14:37:39;0.80;;;0.30;;
26864;SDS011;40618;51.166;10.322;2023-07-13T14:40:16;2.92;;;0.70;;
26864;SDS011;40618;51.166;10.322;2023-07-13T14:42:48;1.43;;;0.60;;
26864;SDS011;40618;51.166;10.322;2023-07-13T14:45:14;2.35;;;0.70;;
26864;SDS011;40618;51.166;10.322;2023-07-13T14:47:42;0.75;;;0.70;;
26864;SDS011;40618;51.166;10.322;2023-07-13T14:50:16;1.15;;;0.68;;
26864;SDS011;40618;51.166;10.322;2023-07-13T14:52:45;1.90;;;0.73;;
26864;SDS011;40618;51.166;10.322;2023-07-13T14:55:16;0.85;;;0.80;;
26864;SDS011;40618;51.166;10.322;2023-07-13T14:57:45;1.75;;;1.02;;
26864;SDS011;40618;51.166;10.322;2023-07-13T15:02:48;2.97;;;0.70;;
26864;SDS011;40618;51.166;10.322;2023-07-13T15:05:29;1.58;;;0.68;;
26864;SDS011;40618;51.166;10.322;2023-07-13T15:08:00;2.15;;;0.73;;
26864;SDS011;40618;51.166;10.322;2023-07-13T15:10:30;1.75;;;0.77;;
26864;SDS011;40618;51.166;10.322;2023-07-13T15:13:12;0.85;;;0.77;;
26864;SDS011;40618;51.166;10.322;2023-07-13T15:15:43;0.77;;;0.60;;
26864;SDS011;40618;51.166;10.322;2023-07-13T15:18:13;2.05;;;1.02;;
26864;SDS011;40618;51.166;10.322;2023-07-13T15:20:42;1.38;;;0.68;;
26864;SDS011;40618;51.166;10.322;2023-07-13T15:23:11;1.75;;;0.63;;
26864;SDS011;40618;51.166;10.322;2023-07-13T15:25:38;1.05;;;0.70;;
26864;SDS011;40618;51.166;10.322;2023-07-13T15:28:04;1.70;;;0.60;;
26864;SDS011;40618;51.166;10.322;2023-07-13T15:30:31;1.65;;;0.57;;
26864;SDS011;40618;51.166;10.322;2023-07-13T15:36:02;1.60;;;0.70;;
26864;SDS011;40618;51.166;10.322;2023-07-13T15:38:30;1.75;;;0.80;;
26864;SDS011;40618;51.166;10.322;2023-07-13T15:40:57;1.15;;;0.65;;
26864;SDS011;40618;51.166;10.322;2023-07-13T15:43:23;2.78;;;0.93;;
26864;SDS011;40618;51.166;10.322;2023-07-13T15:45:49;1.77;;;0.93;;
26864;SDS011;40618;51.166;10.322;2023-07-13T15:48:20;1.23;;;0.70;;
26864;SDS011;40618;51.166;10.322;2023-07-13T15:50:53;2.75;;;0.80;;